sensor_id;sensor_type;location;lat;lon;timestamp;pressure;altitude;pressure_sealevel;temperature;humidity
68822;BME280;55834;50.870;4.606;2023-08-07T00:00:39;100929.78;;;11.82;58.48
68822;BME280;55834;50.870;4.606;2023-08-07T00:03:04;100932.53;;;11.48;57.64
68822;BME280;55834;50.870;4.606;2023-08-07T00:05:30;100921.47;;;11.94;57.26
68822;BME280;55834;50.870;4.606;2023-08-07T00:07:55;100924.88;;;11.70;56.94
68822;BME280;55834;50.870;4.606;2023-08-07T00:10:22;100927.88;;;11.58;57.60
68822;BME280;55834;50.870;4.606;2023-08-07T00:12:47;100936.78;;;11.53;57.78
68822;BME280;55834;50.870;4.606;2023-08-07T00:15:13;100925.41;;;11.81;57.84
68822;BME280;55834;50.870;4.606;2023-08-07T00:17:38;100922.78;;;11.81;56.36
68822;BME280;55834;50.870;4.606;2023-08-07T00:20:04;100924.72;;;12.04;56.31
68822;BME280;55834;50.870;4.606;2023-08-07T00:22:30;100927.56;;;11.68;57.15
68822;BME280;55834;50.870;4.606;2023-08-07T00:24:55;100924.28;;;11.90;57.22
68822;BME280;55834;50.870;4.606;2023-08-07T00:27:21;100928.03;;;12.11;56.52
68822;BME280;55834;50.870;4.606;2023-08-07T00:29:46;100926.88;;;12.18;55.55
68822;BME280;55834;50.870;4.606;2023-08-07T00:32:11;100928.50;;;11.66;56.15
68822;BME280;55834;50.870;4.606;2023-08-07T00:34:37;100934.31;;;10.83;58.88
68822;BME280;55834;50.870;4.606;2023-08-07T00:37:02;100927.25;;;11.48;57.98
68822;BME280;55834;50.870;4.606;2023-08-07T00:39:28;100929.13;;;11.76;56.78
68822;BME280;55834;50.870;4.606;2023-08-07T00:41:53;100935.63;;;11.33;56.37
68822;BME280;55834;50.870;4.606;2023-08-07T00:44:19;100931.84;;;11.41;57.16
68822;BME280;55834;50.870;4.606;2023-08-07T00:46:44;100939.38;;;11.55;57.39
68822;BME280;55834;50.870;4.606;2023-08-07T00:49:11;100936.56;;;11.30;56.28
68822;BME280;55834;50.870;4.606;2023-08-07T00:51:38;100936.75;;;11.55;55.77
68822;BME280;55834;50.870;4.606;2023-08-07T00:54:05;100941.97;;;10.94;57.22
68822;BME280;55834;50.870;4.606;2023-08-07T00:56:32;100942.94;;;10.18;59.17
68822;BME280;55834;50.870;4.606;2023-08-07T00:58:58;100940.88;;;10.31;58.96
68822;BME280;55834;50.870;4.606;2023-08-07T01:01:24;100949.50;;;10.75;58.01
68822;BME280;55834;50.870;4.606;2023-08-07T01:03:50;100946.84;;;10.77;58.07
68822;BME280;55834;50.870;4.606;2023-08-07T01:06:15;100941.41;;;11.14;56.94
68822;BME280;55834;50.870;4.606;2023-08-07T01:08:42;100936.50;;;11.32;56.44
68822;BME280;55834;50.870;4.606;2023-08-07T01:11:34;100935.84;;;10.59;58.39
68822;BME280;55834;50.870;4.606;2023-08-07T01:14:27;100934.56;;;11.07;56.78
68822;BME280;55834;50.870;4.606;2023-08-07T01:17:08;100933.03;;;10.66;57.99
68822;BME280;55834;50.870;4.606;2023-08-07T01:19:35;100935.97;;;10.53;57.78
68822;BME280;55834;50.870;4.606;2023-08-07T01:22:17;100940.47;;;11.17;56.71
68822;BME280;55834;50.870;4.606;2023-08-07T01:24:45;100947.25;;;10.94;57.22
68822;BME280;55834;50.870;4.606;2023-08-07T01:29:44;100944.56;;;10.96;57.00
68822;BME280;55834;50.870;4.606;2023-08-07T01:32:13;100947.97;;;10.67;57.45
68822;BME280;55834;50.870;4.606;2023-08-07T01:34:41;100949.41;;;11.11;56.57
68822;BME280;55834;50.870;4.606;2023-08-07T01:37:07;100959.28;;;10.34;57.77
68822;BME280;55834;50.870;4.606;2023-08-07T01:39:36;100947.88;;;11.02;56.26
68822;BME280;55834;50.870;4.606;2023-08-07T01:42:03;100956.84;;;10.97;56.16
68822;BME280;55834;50.870;4.606;2023-08-07T01:44:30;100953.44;;;10.93;56.94
68822;BME280;55834;50.870;4.606;2023-08-07T01:46:55;100953.72;;;10.48;57.80
68822;BME280;55834;50.870;4.606;2023-08-07T01:49:21;100946.91;;;11.06;56.37
68822;BME280;55834;50.870;4.606;2023-08-07T01:51:46;100951.97;;;11.14;55.44
68822;BME280;55834;50.870;4.606;2023-08-07T01:54:11;100955.41;;;11.49;55.05
68822;BME280;55834;50.870;4.606;2023-08-07T01:56:38;100950.81;;;11.24;54.39
68822;BME280;55834;50.870;4.606;2023-08-07T01:59:03;100954.31;;;11.58;54.96
68822;BME280;55834;50.870;4.606;2023-08-07T02:01:29;100951.50;;;11.33;55.17
68822;BME280;55834;50.870;4.606;2023-08-07T02:03:54;100956.81;;;11.31;54.91
68822;BME280;55834;50.870;4.606;2023-08-07T02:06:20;100953.03;;;11.40;54.36
68822;BME280;55834;50.870;4.606;2023-08-07T02:08:45;100951.97;;;11.14;55.35
68822;BME280;55834;50.870;4.606;2023-08-07T02:11:10;100949.91;;;10.94;55.89
68822;BME280;55834;50.870;4.606;2023-08-07T02:13:36;100951.81;;;10.88;56.38
68822;BME280;55834;50.870;4.606;2023-08-07T02:16:01;100956.50;;;10.76;55.42
68822;BME280;55834;50.870;4.606;2023-08-07T02:18:28;100962.34;;;10.55;56.00
68822;BME280;55834;50.870;4.606;2023-08-07T02:20:53;100955.00;;;11.00;55.67
68822;BME280;55834;50.870;4.606;2023-08-07T02:23:18;100957.22;;;10.83;54.93
68822;BME280;55834;50.870;4.606;2023-08-07T02:25:44;100966.56;;;10.96;55.28
68822;BME280;55834;50.870;4.606;2023-08-07T02:28:10;100957.06;;;11.22;55.17
68822;BME280;55834;50.870;4.606;2023-08-07T02:30:36;100961.94;;;11.04;54.94
68822;BME280;55834;50.870;4.606;2023-08-07T02:33:01;100964.22;;;10.50;56.74
68822;BME280;55834;50.870;4.606;2023-08-07T02:35:27;100958.13;;;10.45;56.88
68822;BME280;55834;50.870;4.606;2023-08-07T02:37:52;100962.38;;;10.88;55.64
68822;BME280;55834;50.870;4.606;2023-08-07T02:40:17;100965.44;;;11.05;54.72
68822;BME280;55834;50.870;4.606;2023-08-07T02:42:44;100954.44;;;10.89;55.08
68822;BME280;55834;50.870;4.606;2023-08-07T02:45:09;100952.03;;;10.80;55.41
68822;BME280;55834;50.870;4.606;2023-08-07T02:47:35;100952.72;;;10.87;55.88
68822;BME280;55834;50.870;4.606;2023-08-07T02:50:00;100961.59;;;10.84;55.72
68822;BME280;55834;50.870;4.606;2023-08-07T02:52:26;100961.50;;;10.87;54.59
68822;BME280;55834;50.870;4.606;2023-08-07T02:54:51;100968.03;;;10.36;55.97
68822;BME280;55834;50.870;4.606;2023-08-07T02:57:17;100956.72;;;10.69;55.85
68822;BME280;55834;50.870;4.606;2023-08-07T02:59:42;100954.88;;;11.05;54.85
68822;BME280;55834;50.870;4.606;2023-08-07T03:02:07;100954.78;;;11.08;54.25
68822;BME280;55834;50.870;4.606;2023-08-07T03:04:33;100948.31;;;10.87;55.46
68822;BME280;55834;50.870;4.606;2023-08-07T03:06:58;100952.53;;;11.27;54.45
68822;BME280;55834;50.870;4.606;2023-08-07T03:09:24;100950.00;;;10.90;54.47
68822;BME280;55834;50.870;4.606;2023-08-07T03:11:49;100960.56;;;10.90;54.72
68822;BME280;55834;50.870;4.606;2023-08-07T03:14:15;100944.97;;;11.13;54.69
68822;BME280;55834;50.870;4.606;2023-08-07T03:16:40;100958.09;;;10.48;56.14
68822;BME280;55834;50.870;4.606;2023-08-07T03:19:06;100953.34;;;10.62;56.14
68822;BME280;55834;50.870;4.606;2023-08-07T03:21:31;100949.47;;;11.10;55.22
68822;BME280;55834;50.870;4.606;2023-08-07T03:23:56;100957.06;;;10.55;55.79
68822;BME280;55834;50.870;4.606;2023-08-07T03:26:22;100958.22;;;10.42;56.51
68822;BME280;55834;50.870;4.606;2023-08-07T03:28:47;100957.19;;;10.47;56.69
68822;BME280;55834;50.870;4.606;2023-08-07T03:31:13;100951.97;;;10.81;56.16
68822;BME280;55834;50.870;4.606;2023-08-07T03:33:39;100953.34;;;10.96;55.86
68822;BME280;55834;50.870;4.606;2023-08-07T03:36:04;100961.50;;;10.53;56.63
68822;BME280;55834;50.870;4.606;2023-08-07T03:38:30;100961.56;;;10.51;57.30
68822;BME280;55834;50.870;4.606;2023-08-07T03:40:55;100948.97;;;10.95;56.82
68822;BME280;55834;50.870;4.606;2023-08-07T03:43:20;100955.47;;;10.46;56.67
68822;BME280;55834;50.870;4.606;2023-08-07T03:45:46;100956.75;;;11.00;56.16
68822;BME280;55834;50.870;4.606;2023-08-07T03:48:12;100956.72;;;10.69;55.90
68822;BME280;55834;50.870;4.606;2023-08-07T03:50:37;100947.16;;;10.97;56.53
68822;BME280;55834;50.870;4.606;2023-08-07T03:53:04;100956.41;;;10.81;56.69
68822;BME280;55834;50.870;4.606;2023-08-07T03:55:32;100958.25;;;10.77;56.63
68822;BME280;55834;50.870;4.606;2023-08-07T03:57:57;100958.91;;;10.12;58.32
68822;BME280;55834;50.870;4.606;2023-08-07T04:00:22;100955.78;;;10.71;57.21
68822;BME280;55834;50.870;4.606;2023-08-07T04:02:48;100950.09;;;10.87;56.83
68822;BME280;55834;50.870;4.606;2023-08-07T04:05:13;100954.50;;;10.86;56.83
68822;BME280;55834;50.870;4.606;2023-08-07T04:07:39;100948.94;;;10.63;58.42
68822;BME280;55834;50.870;4.606;2023-08-07T04:10:04;100961.91;;;11.06;57.31
68822;BME280;55834;50.870;4.606;2023-08-07T04:12:30;100965.00;;;11.22;57.02
68822;BME280;55834;50.870;4.606;2023-08-07T04:14:55;100967.38;;;11.31;56.25
68822;BME280;55834;50.870;4.606;2023-08-07T04:17:20;100978.19;;;10.53;58.55
68822;BME280;55834;50.870;4.606;2023-08-07T04:19:46;100965.50;;;11.03;57.22
68822;BME280;55834;50.870;4.606;2023-08-07T04:22:11;100978.88;;;10.61;58.02
68822;BME280;55834;50.870;4.606;2023-08-07T04:24:37;100974.53;;;10.59;58.01
68822;BME280;55834;50.870;4.606;2023-08-07T04:27:02;100971.28;;;10.49;58.78
68822;BME280;55834;50.870;4.606;2023-08-07T04:29:28;100974.06;;;10.42;58.95
68822;BME280;55834;50.870;4.606;2023-08-07T04:31:53;100964.94;;;10.91;57.48
68822;BME280;55834;50.870;4.606;2023-08-07T04:34:18;100971.50;;;10.38;59.17
68822;BME280;55834;50.870;4.606;2023-08-07T04:36:44;100986.13;;;10.14;59.50
68822;BME280;55834;50.870;4.606;2023-08-07T04:39:09;100981.94;;;10.06;59.14
68822;BME280;55834;50.870;4.606;2023-08-07T04:41:35;100984.78;;;9.97;59.56
68822;BME280;55834;50.870;4.606;2023-08-07T04:44:00;100989.50;;;9.37;61.96
68822;BME280;55834;50.870;4.606;2023-08-07T04:46:26;100984.22;;;9.39;62.54
68822;BME280;55834;50.870;4.606;2023-08-07T04:48:51;100981.13;;;10.02;60.70
68822;BME280;55834;50.870;4.606;2023-08-07T04:51:17;101000.78;;;10.28;59.46
68822;BME280;55834;50.870;4.606;2023-08-07T04:53:43;100988.13;;;10.42;60.09
68822;BME280;55834;50.870;4.606;2023-08-07T04:56:11;100988.25;;;10.37;59.62
68822;BME280;55834;50.870;4.606;2023-08-07T04:58:39;100990.72;;;10.45;59.16
68822;BME280;55834;50.870;4.606;2023-08-07T05:01:04;100998.03;;;9.93;60.36
68822;BME280;55834;50.870;4.606;2023-08-07T05:03:30;100990.56;;;10.87;58.76
68822;BME280;55834;50.870;4.606;2023-08-07T05:06:02;100981.34;;;11.03;57.97
68822;BME280;55834;50.870;4.606;2023-08-07T05:08:27;100998.16;;;10.65;58.01
68822;BME280;55834;50.870;4.606;2023-08-07T05:10:53;100998.66;;;10.81;58.67
68822;BME280;55834;50.870;4.606;2023-08-07T05:13:18;101000.09;;;10.94;58.28
68822;BME280;55834;50.870;4.606;2023-08-07T05:15:47;100999.44;;;11.19;57.14
68822;BME280;55834;50.870;4.606;2023-08-07T05:18:12;101014.84;;;10.67;57.60
68822;BME280;55834;50.870;4.606;2023-08-07T05:20:38;101011.31;;;11.02;57.17
68822;BME280;55834;50.870;4.606;2023-08-07T05:23:03;101011.34;;;11.35;56.44
68822;BME280;55834;50.870;4.606;2023-08-07T05:25:28;101024.22;;;10.79;57.82
68822;BME280;55834;50.870;4.606;2023-08-07T05:27:54;101019.09;;;10.73;57.99
68822;BME280;55834;50.870;4.606;2023-08-07T05:30:19;101012.69;;;10.83;58.84
68822;BME280;55834;50.870;4.606;2023-08-07T05:32:45;101014.34;;;10.51;59.22
68822;BME280;55834;50.870;4.606;2023-08-07T05:35:10;101011.03;;;11.13;58.23
68822;BME280;55834;50.870;4.606;2023-08-07T05:37:36;101017.75;;;11.89;56.59
68822;BME280;55834;50.870;4.606;2023-08-07T05:40:02;101015.28;;;12.12;55.89
68822;BME280;55834;50.870;4.606;2023-08-07T05:42:27;101012.34;;;12.51;54.82
68822;BME280;55834;50.870;4.606;2023-08-07T05:44:53;101014.59;;;12.07;55.61
68822;BME280;55834;50.870;4.606;2023-08-07T05:47:19;101014.38;;;11.84;55.78
68822;BME280;55834;50.870;4.606;2023-08-07T05:49:44;101021.03;;;11.67;57.39
68822;BME280;55834;50.870;4.606;2023-08-07T05:52:09;101014.88;;;12.54;55.51
68822;BME280;55834;50.870;4.606;2023-08-07T05:54:35;101026.03;;;11.78;56.30
68822;BME280;55834;50.870;4.606;2023-08-07T05:57:00;101032.66;;;11.93;56.02
68822;BME280;55834;50.870;4.606;2023-08-07T05:59:26;101043.25;;;12.21;55.34
68822;BME280;55834;50.870;4.606;2023-08-07T06:01:52;101034.06;;;12.33;55.84
68822;BME280;55834;50.870;4.606;2023-08-07T06:04:18;101031.97;;;12.44;55.34
68822;BME280;55834;50.870;4.606;2023-08-07T06:06:43;101039.69;;;12.52;55.31
68822;BME280;55834;50.870;4.606;2023-08-07T06:09:09;101034.34;;;11.95;55.84
68822;BME280;55834;50.870;4.606;2023-08-07T06:11:34;101042.53;;;12.46;56.18
68822;BME280;55834;50.870;4.606;2023-08-07T06:14:00;101041.69;;;12.43;55.53
68822;BME280;55834;50.870;4.606;2023-08-07T06:16:26;101047.59;;;11.94;56.77
68822;BME280;55834;50.870;4.606;2023-08-07T06:18:52;101039.19;;;12.11;56.52
68822;BME280;55834;50.870;4.606;2023-08-07T06:21:17;101027.81;;;13.17;55.47
68822;BME280;55834;50.870;4.606;2023-08-07T06:23:43;101040.53;;;12.52;55.77
68822;BME280;55834;50.870;4.606;2023-08-07T06:26:08;101037.81;;;13.35;54.47
68822;BME280;55834;50.870;4.606;2023-08-07T06:28:34;101042.63;;;13.49;53.30
68822;BME280;55834;50.870;4.606;2023-08-07T06:31:08;101050.31;;;14.05;53.81
68822;BME280;55834;50.870;4.606;2023-08-07T06:33:34;101047.16;;;14.41;52.81
68822;BME280;55834;50.870;4.606;2023-08-07T06:36:00;101057.00;;;14.39;52.15
68822;BME280;55834;50.870;4.606;2023-08-07T06:38:26;101045.59;;;14.35;53.28
68822;BME280;55834;50.870;4.606;2023-08-07T06:40:51;101052.41;;;14.42;52.91
68822;BME280;55834;50.870;4.606;2023-08-07T06:43:16;101043.09;;;13.85;52.49
68822;BME280;55834;50.870;4.606;2023-08-07T06:45:42;101055.44;;;14.33;53.00
68822;BME280;55834;50.870;4.606;2023-08-07T06:48:07;101048.81;;;13.49;53.68
68822;BME280;55834;50.870;4.606;2023-08-07T06:50:33;101047.53;;;13.85;54.63
68822;BME280;55834;50.870;4.606;2023-08-07T06:52:58;101046.84;;;13.80;53.88
68822;BME280;55834;50.870;4.606;2023-08-07T06:55:23;101058.09;;;13.86;53.57
68822;BME280;55834;50.870;4.606;2023-08-07T06:57:49;101049.50;;;13.29;55.63
68822;BME280;55834;50.870;4.606;2023-08-07T07:00:15;101052.00;;;12.81;54.94
68822;BME280;55834;50.870;4.606;2023-08-07T07:02:41;101042.69;;;13.96;54.33
68822;BME280;55834;50.870;4.606;2023-08-07T07:05:06;101046.06;;;14.01;53.01
68822;BME280;55834;50.870;4.606;2023-08-07T07:07:31;101044.81;;;14.99;51.68
68822;BME280;55834;50.870;4.606;2023-08-07T07:09:57;101054.97;;;14.22;54.46
68822;BME280;55834;50.870;4.606;2023-08-07T07:12:28;101048.13;;;14.38;54.39
68822;BME280;55834;50.870;4.606;2023-08-07T07:14:54;101053.03;;;14.27;52.57
68822;BME280;55834;50.870;4.606;2023-08-07T07:17:19;101049.63;;;14.00;53.15
68822;BME280;55834;50.870;4.606;2023-08-07T07:19:45;101059.59;;;12.65;55.38
68822;BME280;55834;50.870;4.606;2023-08-07T07:22:10;101055.66;;;13.30;54.73
68822;BME280;55834;50.870;4.606;2023-08-07T07:24:36;101053.81;;;13.59;54.23
68822;BME280;55834;50.870;4.606;2023-08-07T07:27:01;101067.19;;;13.29;54.45
68822;BME280;55834;50.870;4.606;2023-08-07T07:29:26;101057.81;;;13.94;53.41
68822;BME280;55834;50.870;4.606;2023-08-07T07:31:52;101059.25;;;14.03;51.91
68822;BME280;55834;50.870;4.606;2023-08-07T07:34:19;101062.47;;;14.34;51.39
68822;BME280;55834;50.870;4.606;2023-08-07T07:36:44;101056.84;;;13.96;54.15
68822;BME280;55834;50.870;4.606;2023-08-07T07:39:10;101061.97;;;14.01;51.91
68822;BME280;55834;50.870;4.606;2023-08-07T07:41:36;101058.31;;;13.80;51.81
68822;BME280;55834;50.870;4.606;2023-08-07T07:44:01;101068.38;;;13.72;52.19
68822;BME280;55834;50.870;4.606;2023-08-07T07:46:27;101065.13;;;14.80;50.47
68822;BME280;55834;50.870;4.606;2023-08-07T07:48:53;101085.28;;;14.40;49.71
68822;BME280;55834;50.870;4.606;2023-08-07T07:51:18;101081.06;;;14.34;51.89
68822;BME280;55834;50.870;4.606;2023-08-07T07:53:43;101073.78;;;14.39;52.15
68822;BME280;55834;50.870;4.606;2023-08-07T07:56:10;101081.94;;;14.11;51.88
68822;BME280;55834;50.870;4.606;2023-08-07T07:58:35;101085.66;;;14.76;51.47
68822;BME280;55834;50.870;4.606;2023-08-07T08:01:01;101082.56;;;15.50;48.86
68822;BME280;55834;50.870;4.606;2023-08-07T08:03:26;101079.91;;;15.07;50.81
68822;BME280;55834;50.870;4.606;2023-08-07T08:05:52;101081.16;;;15.62;48.66
68822;BME280;55834;50.870;4.606;2023-08-07T08:08:18;101101.03;;;14.44;50.77
68822;BME280;55834;50.870;4.606;2023-08-07T08:10:44;101097.09;;;15.21;47.95
68822;BME280;55834;50.870;4.606;2023-08-07T08:13:12;101098.44;;;14.43;48.83
68822;BME280;55834;50.870;4.606;2023-08-07T08:15:37;101094.91;;;14.66;49.24
68822;BME280;55834;50.870;4.606;2023-08-07T08:18:03;101096.06;;;14.12;50.19
68822;BME280;55834;50.870;4.606;2023-08-07T08:20:28;101104.34;;;14.28;50.01
68822;BME280;55834;50.870;4.606;2023-08-07T08:22:56;101104.16;;;14.56;48.32
68822;BME280;55834;50.870;4.606;2023-08-07T08:25:21;101105.22;;;13.80;51.12
68822;BME280;55834;50.870;4.606;2023-08-07T08:27:47;101107.63;;;14.34;49.20
68822;BME280;55834;50.870;4.606;2023-08-07T08:30:12;101120.97;;;14.33;49.48
68822;BME280;55834;50.870;4.606;2023-08-07T08:32:38;101113.22;;;15.16;47.47
68822;BME280;55834;50.870;4.606;2023-08-07T08:35:04;101109.25;;;15.06;48.08
68822;BME280;55834;50.870;4.606;2023-08-07T08:37:30;101119.19;;;15.01;48.71
68822;BME280;55834;50.870;4.606;2023-08-07T08:39:55;101120.97;;;14.78;47.81
68822;BME280;55834;50.870;4.606;2023-08-07T08:42:20;101112.75;;;14.84;48.69
68822;BME280;55834;50.870;4.606;2023-08-07T08:44:54;101123.28;;;15.72;49.55
68822;BME280;55834;50.870;4.606;2023-08-07T08:47:21;101108.03;;;15.13;48.16
68822;BME280;55834;50.870;4.606;2023-08-07T08:49:49;101115.56;;;15.03;46.24
68822;BME280;55834;50.870;4.606;2023-08-07T08:52:16;101110.59;;;14.72;48.00
68822;BME280;55834;50.870;4.606;2023-08-07T08:54:41;101118.69;;;14.69;49.24
68822;BME280;55834;50.870;4.606;2023-08-07T08:57:07;101112.97;;;14.80;48.72
68822;BME280;55834;50.870;4.606;2023-08-07T08:59:33;101117.44;;;15.22;48.21
68822;BME280;55834;50.870;4.606;2023-08-07T09:01:59;101118.75;;;15.54;46.76
68822;BME280;55834;50.870;4.606;2023-08-07T09:04:25;101125.81;;;15.12;47.92
68822;BME280;55834;50.870;4.606;2023-08-07T09:06:50;101131.84;;;14.72;48.59
68822;BME280;55834;50.870;4.606;2023-08-07T09:09:17;101123.31;;;15.52;48.25
68822;BME280;55834;50.870;4.606;2023-08-07T09:11:45;101125.84;;;15.94;46.72
68822;BME280;55834;50.870;4.606;2023-08-07T09:14:16;101135.75;;;15.29;46.87
68822;BME280;55834;50.870;4.606;2023-08-07T09:16:43;101135.81;;;14.84;48.40
68822;BME280;55834;50.870;4.606;2023-08-07T09:19:08;101127.03;;;15.26;46.42
68822;BME280;55834;50.870;4.606;2023-08-07T09:21:34;101133.66;;;16.19;47.75
68822;BME280;55834;50.870;4.606;2023-08-07T09:24:00;101125.75;;;16.37;43.62
68822;BME280;55834;50.870;4.606;2023-08-07T09:26:25;101129.13;;;16.40;45.14
68822;BME280;55834;50.870;4.606;2023-08-07T09:28:52;101128.53;;;15.94;46.21
68822;BME280;55834;50.870;4.606;2023-08-07T09:31:22;101141.38;;;15.85;46.71
68822;BME280;55834;50.870;4.606;2023-08-07T09:33:51;101140.03;;;15.54;46.97
68822;BME280;55834;50.870;4.606;2023-08-07T09:36:17;101126.59;;;15.37;45.87
68822;BME280;55834;50.870;4.606;2023-08-07T09:38:43;101138.41;;;15.51;47.10
68822;BME280;55834;50.870;4.606;2023-08-07T09:41:08;101139.66;;;15.84;46.56
68822;BME280;55834;50.870;4.606;2023-08-07T09:43:35;101137.25;;;15.98;44.27
68822;BME280;55834;50.870;4.606;2023-08-07T09:46:04;101138.13;;;16.57;46.55
68822;BME280;55834;50.870;4.606;2023-08-07T09:48:30;101132.56;;;16.80;43.56
68822;BME280;55834;50.870;4.606;2023-08-07T09:51:00;101140.78;;;16.57;43.61
68822;BME280;55834;50.870;4.606;2023-08-07T09:53:27;101136.13;;;16.62;45.14
68822;BME280;55834;50.870;4.606;2023-08-07T09:55:53;101138.50;;;16.68;44.31
68822;BME280;55834;50.870;4.606;2023-08-07T09:58:18;101138.16;;;17.12;41.53
68822;BME280;55834;50.870;4.606;2023-08-07T10:00:46;101147.16;;;17.09;40.92
68822;BME280;55834;50.870;4.606;2023-08-07T10:03:12;101150.88;;;16.50;43.90
68822;BME280;55834;50.870;4.606;2023-08-07T10:05:38;101152.47;;;16.35;44.93
68822;BME280;55834;50.870;4.606;2023-08-07T10:08:03;101156.22;;;16.50;43.54
68822;BME280;55834;50.870;4.606;2023-08-07T10:10:32;101154.78;;;16.62;43.71
68822;BME280;55834;50.870;4.606;2023-08-07T10:13:00;101156.84;;;16.74;43.29
68822;BME280;55834;50.870;4.606;2023-08-07T10:15:26;101163.84;;;15.15;43.31
68822;BME280;55834;50.870;4.606;2023-08-07T10:17:52;101159.59;;;15.32;44.56
68822;BME280;55834;50.870;4.606;2023-08-07T10:20:17;101161.25;;;15.77;44.44
68822;BME280;55834;50.870;4.606;2023-08-07T10:22:43;101153.69;;;16.66;42.94
68822;BME280;55834;50.870;4.606;2023-08-07T10:25:10;101153.41;;;16.53;43.59
68822;BME280;55834;50.870;4.606;2023-08-07T10:27:37;101154.63;;;16.27;45.16
68822;BME280;55834;50.870;4.606;2023-08-07T10:30:06;101158.88;;;17.24;43.87
68822;BME280;55834;50.870;4.606;2023-08-07T10:32:32;101166.88;;;16.50;44.64
68822;BME280;55834;50.870;4.606;2023-08-07T10:34:58;101149.25;;;17.91;42.94
68822;BME280;55834;50.870;4.606;2023-08-07T10:37:39;101159.47;;;17.48;43.46
68822;BME280;55834;50.870;4.606;2023-08-07T10:40:06;101157.94;;;16.70;41.05
68822;BME280;55834;50.870;4.606;2023-08-07T10:42:57;101159.34;;;16.20;42.45
68822;BME280;55834;50.870;4.606;2023-08-07T10:45:25;101164.63;;;16.98;39.16
68822;BME280;55834;50.870;4.606;2023-08-07T10:48:12;101155.19;;;17.09;40.52
68822;BME280;55834;50.870;4.606;2023-08-07T10:50:56;101173.19;;;16.29;41.78
68822;BME280;55834;50.870;4.606;2023-08-07T10:56:08;101169.41;;;17.27;41.38
68822;BME280;55834;50.870;4.606;2023-08-07T10:58:37;101173.66;;;15.97;42.61
68822;BME280;55834;50.870;4.606;2023-08-07T11:01:22;101177.34;;;15.74;43.77
68822;BME280;55834;50.870;4.606;2023-08-07T11:03:52;101170.94;;;15.99;40.91
68822;BME280;55834;50.870;4.606;2023-08-07T11:06:21;101166.72;;;16.91;41.70
68822;BME280;55834;50.870;4.606;2023-08-07T11:08:48;101175.94;;;16.27;40.45
68822;BME280;55834;50.870;4.606;2023-08-07T11:11:14;101160.41;;;17.47;40.32
68822;BME280;55834;50.870;4.606;2023-08-07T11:13:39;101174.44;;;15.99;42.36
68822;BME280;55834;50.870;4.606;2023-08-07T11:16:05;101157.22;;;16.66;40.89
68822;BME280;55834;50.870;4.606;2023-08-07T11:18:31;101164.16;;;17.26;39.07
68822;BME280;55834;50.870;4.606;2023-08-07T11:20:57;101171.16;;;17.28;39.60
68822;BME280;55834;50.870;4.606;2023-08-07T11:23:24;101164.81;;;17.66;40.36
68822;BME280;55834;50.870;4.606;2023-08-07T11:25:50;101163.88;;;17.67;39.75
68822;BME280;55834;50.870;4.606;2023-08-07T11:28:18;101163.31;;;17.25;40.22
68822;BME280;55834;50.870;4.606;2023-08-07T11:30:54;101160.84;;;17.21;40.78
68822;BME280;55834;50.870;4.606;2023-08-07T11:33:21;101152.72;;;17.41;40.57
68822;BME280;55834;50.870;4.606;2023-08-07T11:35:49;101170.13;;;17.31;39.78
68822;BME280;55834;50.870;4.606;2023-08-07T11:38:36;101163.88;;;17.84;39.86
68822;BME280;55834;50.870;4.606;2023-08-07T11:41:04;101159.34;;;18.19;40.89
68822;BME280;55834;50.870;4.606;2023-08-07T11:43:31;101162.13;;;18.34;42.56
68822;BME280;55834;50.870;4.606;2023-08-07T11:45:57;101160.56;;;18.94;40.82
68822;BME280;55834;50.870;4.606;2023-08-07T11:48:25;101168.19;;;17.52;40.35
68822;BME280;55834;50.870;4.606;2023-08-07T11:50:51;101157.69;;;17.84;41.25
68822;BME280;55834;50.870;4.606;2023-08-07T11:53:18;101160.44;;;17.82;40.16
68822;BME280;55834;50.870;4.606;2023-08-07T11:55:51;101158.03;;;17.24;41.04
68822;BME280;55834;50.870;4.606;2023-08-07T11:58:17;101144.88;;;17.55;40.99
68822;BME280;55834;50.870;4.606;2023-08-07T12:00:46;101145.72;;;17.39;42.09
68822;BME280;55834;50.870;4.606;2023-08-07T12:05:55;101144.03;;;17.19;40.21
68822;BME280;55834;50.870;4.606;2023-08-07T12:08:21;101156.81;;;17.48;41.09
68822;BME280;55834;50.870;4.606;2023-08-07T12:10:53;101156.53;;;17.35;41.68
68822;BME280;55834;50.870;4.606;2023-08-07T12:13:26;101150.50;;;17.32;39.77
68822;BME280;55834;50.870;4.606;2023-08-07T12:15:56;101156.19;;;17.61;40.62
68822;BME280;55834;50.870;4.606;2023-08-07T12:18:22;101153.50;;;17.61;41.71
68822;BME280;55834;50.870;4.606;2023-08-07T12:20:51;101148.03;;;17.81;40.35
68822;BME280;55834;50.870;4.606;2023-08-07T12:23:17;101150.41;;;17.51;40.22
68822;BME280;55834;50.870;4.606;2023-08-07T12:25:43;101137.00;;;17.87;42.53
68822;BME280;55834;50.870;4.606;2023-08-07T12:28:09;101151.38;;;17.32;40.66
68822;BME280;55834;50.870;4.606;2023-08-07T12:30:36;101148.22;;;17.24;42.12
68822;BME280;55834;50.870;4.606;2023-08-07T12:33:02;101136.22;;;17.68;39.64
68822;BME280;55834;50.870;4.606;2023-08-07T12:35:33;101138.63;;;18.07;40.88
68822;BME280;55834;50.870;4.606;2023-08-07T12:37:59;101141.41;;;17.53;40.99
68822;BME280;55834;50.870;4.606;2023-08-07T12:40:25;101135.78;;;16.87;42.10
68822;BME280;55834;50.870;4.606;2023-08-07T12:42:50;101122.09;;;17.83;43.28
68822;BME280;55834;50.870;4.606;2023-08-07T12:45:16;101126.66;;;18.14;41.63
68822;BME280;55834;50.870;4.606;2023-08-07T12:47:42;101137.53;;;17.24;43.75
68822;BME280;55834;50.870;4.606;2023-08-07T12:50:08;101128.22;;;17.50;40.70
68822;BME280;55834;50.870;4.606;2023-08-07T12:52:34;101127.53;;;16.55;42.97
68822;BME280;55834;50.870;4.606;2023-08-07T12:55:00;101127.72;;;17.59;41.40